Time;durP1;ratioP1;P1;durP2;ratioP2;P2;SDS_P1;SDS_P2;PMS_P1;PMS_P2;Temp;Humidity;BMP_temperature;BMP_pressure;BME280_temperature;BME280_humidity;BME280_pressure;Samples;Min_cycle;Max_cycle;Signal;HPM_P1;HPM_P2
2024/03/21 00:02:23;;;;;;;11.30;10.10;;;10.50;99.90;;;;;;5076312;28;20221;-81
2024/03/21 00:04:50;;;;;;;11.48;10.38;;;10.50;99.90;;;;;;5083688;28;20225;-77
2024/03/21 00:07:16;;;;;;;11.23;9.35;;;10.50;99.90;;;;;;5092815;28;20667;-77
2024/03/21 00:09:43;;;;;;;10.20;9.25;;;10.50;99.90;;;;;;5091525;28;20620;-77
2024/03/21 00:12:10;;;;;;;11.65;9.98;;;10.50;99.90;;;;;;5097318;28;20717;-81
2024/03/21 00:14:38;;;;;;;12.07;10.88;;;10.50;99.90;;;;;;5098485;28;20284;-79
2024/03/21 00:17:04;;;;;;;13.45;12.02;;;10.50;99.90;;;;;;5086871;28;20318;-77
2024/03/21 00:19:31;;;;;;;12.43;11.13;;;10.40;99.90;;;;;;5090961;28;20245;-82
2024/03/21 00:21:57;;;;;;;11.07;9.90;;;10.40;99.90;;;;;;5085703;28;20266;-76
2024/03/21 00:24:24;;;;;;;9.82;8.82;;;10.50;99.90;;;;;;5088681;28;20217;-77
2024/03/21 00:26:50;;;;;;;10.40;9.40;;;10.50;99.90;;;;;;5090270;28;20278;-79
2024/03/21 00:29:17;;;;;;;9.27;8.38;;;10.60;99.90;;;;;;5084102;28;20217;-76
2024/03/21 00:31:46;;;;;;;10.18;9.18;;;10.70;99.90;;;;;;5078288;28;20218;-83
2024/03/21 00:34:13;;;;;;;10.93;9.88;;;10.70;99.90;;;;;;5061925;28;20253;-75
2024/03/21 00:36:39;;;;;;;10.70;9.60;;;10.70;99.90;;;;;;5070191;28;20326;-82
2024/03/21 00:39:06;;;;;;;11.23;10.02;;;10.70;99.90;;;;;;5086869;28;20708;-78
2024/03/21 00:41:32;;;;;;;10.13;9.13;;;10.70;99.90;;;;;;5084957;28;20222;-76
2024/03/21 00:43:59;;;;;;;10.32;9.32;;;10.60;99.90;;;;;;5083717;28;20209;-78
2024/03/21 00:46:25;;;;;;;11.43;9.85;;;10.60;99.90;;;;;;5086764;28;20245;-78
2024/03/21 00:48:53;;;;;;;10.40;9.38;;;10.60;99.90;;;;;;5093994;28;20619;-78
2024/03/21 00:51:20;;;;;;;11.93;8.77;;;10.60;99.90;;;;;;5086468;28;20232;-78
2024/03/21 00:53:47;;;;;;;9.10;8.15;;;10.60;99.90;;;;;;5090288;28;20210;-76
2024/03/21 00:56:13;;;;;;;9.02;8.13;;;10.60;99.90;;;;;;5082970;28;20243;-78
2024/03/21 00:58:40;;;;;;;11.18;10.07;;;10.60;99.90;;;;;;5089024;28;20627;-84
2024/03/21 01:01:06;;;;;;;9.07;8.18;;;10.50;99.90;;;;;;5084063;28;20221;-76
2024/03/21 01:03:33;;;;;;;8.60;7.80;;;10.50;99.90;;;;;;5083696;28;20475;-79
2024/03/21 01:06:01;;;;;;;9.23;8.35;;;10.50;99.90;;;;;;5084709;27;20556;-78
2024/03/21 01:08:28;;;;;;;10.00;9.00;;;10.40;99.90;;;;;;5090867;27;20222;-79
2024/03/21 01:10:54;;;;;;;9.98;8.98;;;10.40;99.90;;;;;;5082960;28;20224;-79
2024/03/21 01:13:21;;;;;;;9.65;8.75;;;10.40;99.90;;;;;;5065258;28;20322;-75
2024/03/21 01:15:47;;;;;;;10.07;9.07;;;10.40;99.90;;;;;;5071108;28;20214;-76
2024/03/21 01:18:14;;;;;;;9.52;8.63;;;10.40;99.90;;;;;;5085933;28;20290;-78
2024/03/21 01:20:41;;;;;;;10.63;8.18;;;10.40;99.90;;;;;;5084126;28;20711;-81
2024/03/21 01:23:09;;;;;;;8.38;7.57;;;10.40;99.90;;;;;;5083019;28;20688;-76
2024/03/21 01:25:37;;;;;;;9.93;8.85;;;10.40;99.90;;;;;;5089060;28;20249;-80
2024/03/21 01:28:05;;;;;;;9.48;8.55;;;10.50;99.90;;;;;;5081885;28;20222;-81
2024/03/21 01:30:33;;;;;;;9.30;8.30;;;10.50;99.90;;;;;;5067619;28;20248;-82
2024/03/21 01:33:00;;;;;;;10.23;9.13;;;10.50;99.90;;;;;;5080522;28;20305;-77
2024/03/21 01:35:26;;;;;;;9.90;9.00;;;10.40;99.90;;;;;;5088426;28;20236;-77
2024/03/21 01:37:55;;;;;;;10.00;9.00;;;10.40;99.90;;;;;;5083998;28;20723;-77
2024/03/21 01:40:22;;;;;;;9.90;8.90;;;10.40;99.90;;;;;;5086786;28;20248;-76
2024/03/21 01:42:50;;;;;;;9.75;8.80;;;10.40;99.90;;;;;;5061867;28;21836;-80
2024/03/21 01:45:17;;;;;;;9.27;8.38;;;10.40;99.90;;;;;;5069259;28;20221;-78
2024/03/21 01:47:44;;;;;;;9.68;8.73;;;10.40;99.90;;;;;;5072833;28;20992;-83
2024/03/21 01:50:11;;;;;;;11.30;10.20;;;10.30;99.90;;;;;;5089477;28;20273;-81
2024/03/21 01:52:39;;;;;;;9.75;8.75;;;10.30;99.90;;;;;;5087515;28;20220;-81
2024/03/21 01:55:05;;;;;;;9.38;8.48;;;10.30;99.90;;;;;;5088098;28;20249;-79
2024/03/21 01:57:35;;;;;;;9.27;8.38;;;10.30;99.90;;;;;;5087607;28;20241;-81
2024/03/21 02:00:03;;;;;;;8.68;7.88;;;10.30;99.90;;;;;;5090826;28;21868;-82
2024/03/21 02:02:30;;;;;;;9.65;8.50;;;10.30;99.90;;;;;;5094412;28;20730;-82
2024/03/21 02:04:56;;;;;;;10.77;9.73;;;10.30;99.90;;;;;;5091357;28;20273;-78
2024/03/21 02:07:24;;;;;;;10.88;9.77;;;10.20;99.90;;;;;;5090395;28;20304;-76
2024/03/21 02:09:50;;;;;;;11.60;10.50;;;10.10;99.90;;;;;;5090979;28;20301;-78
2024/03/21 02:12:44;;;;;;;9.80;8.82;;;10.10;99.90;;;;;;5070477;28;20249;-75
2024/03/21 02:15:11;;;;;;;10.70;9.70;;;10.10;99.90;;;;;;5059813;28;20310;-78
2024/03/21 02:17:39;;;;;;;10.63;9.57;;;10.00;99.90;;;;;;5080176;28;20832;-76
2024/03/21 02:20:06;;;;;;;11.10;10.00;;;10.00;99.90;;;;;;5086341;28;20711;-77
2024/03/21 02:22:37;;;;;;;10.05;9.05;;;10.00;99.90;;;;;;5085438;28;20664;-75
2024/03/21 02:25:04;;;;;;;10.45;9.35;;;10.00;99.90;;;;;;5080804;28;20303;-76
2024/03/21 02:27:31;;;;;;;10.80;9.70;;;10.00;99.90;;;;;;5064398;28;20218;-77
2024/03/21 02:29:57;;;;;;;11.25;10.02;;;10.00;99.90;;;;;;5062396;28;20639;-77
2024/03/21 02:32:24;;;;;;;9.68;8.77;;;10.00;99.90;;;;;;5088982;28;20213;-78
2024/03/21 02:34:50;;;;;;;10.90;9.80;;;10.00;99.90;;;;;;5087409;28;20220;-78
2024/03/21 02:37:17;;;;;;;10.50;9.50;;;10.00;99.90;;;;;;5068699;28;20744;-75
2024/03/21 02:39:46;;;;;;;10.32;9.32;;;10.00;99.90;;;;;;5074531;27;20283;-74
2024/03/21 02:42:13;;;;;;;11.35;10.15;;;10.00;99.90;;;;;;5061354;28;20215;-82
2024/03/21 02:44:39;;;;;;;11.20;10.13;;;9.90;99.90;;;;;;5086320;28;20220;-77
2024/03/21 02:47:06;;;;;;;11.25;10.10;;;9.90;99.90;;;;;;5086799;28;20209;-80
2024/03/21 02:49:32;;;;;;;10.93;9.88;;;9.80;99.90;;;;;;5093315;28;20229;-76
2024/03/21 02:51:59;;;;;;;10.57;9.55;;;9.80;99.90;;;;;;5082955;28;20297;-77
2024/03/21 02:54:25;;;;;;;10.63;9.63;;;9.80;99.90;;;;;;5087554;28;20304;-77
2024/03/21 02:56:54;;;;;;;10.02;9.02;;;9.80;99.90;;;;;;5087908;28;20213;-75
2024/03/21 02:59:20;;;;;;;10.00;9.10;;;9.80;99.90;;;;;;5089208;28;20221;-78
2024/03/21 03:01:47;;;;;;;10.15;9.15;;;9.80;99.90;;;;;;5086152;28;20247;-75
2024/03/21 03:04:12;;;;;;;10.27;9.27;;;9.90;99.90;;;;;;5085694;28;20213;-76
2024/03/21 03:06:39;;;;;;;9.98;8.98;;;9.90;99.90;;;;;;5086335;28;20209;-76
2024/03/21 03:09:05;;;;;;;9.45;8.45;;;9.90;99.90;;;;;;5083411;28;20244;-81
2024/03/21 03:11:32;;;;;;;9.20;8.27;;;9.90;99.90;;;;;;5084902;28;20221;-81
2024/03/21 03:14:00;;;;;;;10.15;9.15;;;9.80;99.90;;;;;;5088039;28;20221;-77
2024/03/21 03:16:27;;;;;;;8.93;8.05;;;9.90;99.90;;;;;;5086103;28;20221;-81
2024/03/21 03:18:52;;;;;;;11.50;10.32;;;9.80;99.90;;;;;;5087252;28;20276;-74
2024/03/21 03:21:19;;;;;;;11.02;9.93;;;9.80;99.90;;;;;;5091382;28;20699;-77
2024/03/21 03:23:45;;;;;;;9.70;8.77;;;9.70;99.90;;;;;;5084004;28;20194;-77
2024/03/21 03:26:12;;;;;;;10.52;9.48;;;9.70;99.90;;;;;;5085592;28;20283;-77
2024/03/21 03:28:38;;;;;;;11.52;10.30;;;9.60;99.90;;;;;;5091110;28;20260;-77
2024/03/21 03:31:06;;;;;;;11.25;10.07;;;9.60;99.90;;;;;;5087925;28;20247;-75
2024/03/21 03:36:18;;;;;;;12.00;10.77;;;9.60;99.90;;;;;;5089487;28;20232;-83
2024/03/21 03:38:45;;;;;;;12.25;10.85;;;9.50;99.90;;;;;;5091112;28;20575;-77
2024/03/21 03:41:11;;;;;;;10.38;9.32;;;9.50;99.90;;;;;;5090347;28;20225;-81
2024/03/21 03:43:38;;;;;;;11.68;10.38;;;9.40;99.90;;;;;;5088501;28;20225;-77
2024/03/21 03:46:06;;;;;;;10.68;9.68;;;9.40;99.90;;;;;;5090305;28;20273;-82
2024/03/21 03:48:32;;;;;;;10.68;9.63;;;9.40;99.90;;;;;;5086135;28;20214;-81
2024/03/21 03:50:59;;;;;;;9.98;8.98;;;9.40;99.90;;;;;;5079332;28;20445;-81
2024/03/21 03:53:26;;;;;;;11.07;9.98;;;9.40;99.90;;;;;;5088148;28;20510;-82
2024/03/21 03:55:52;;;;;;;11.63;9.77;;;9.30;99.90;;;;;;5083927;28;20243;-77
2024/03/21 03:58:20;;;;;;;10.57;9.50;;;9.40;99.90;;;;;;5068424;28;20901;-77
2024/03/21 04:00:55;;;;;;;11.00;9.90;;;9.40;99.90;;;;;;5066365;28;20255;-77
2024/03/21 04:03:23;;;;;;;12.02;10.82;;;9.40;99.90;;;;;;5081949;28;20299;-76
2024/03/21 04:05:55;;;;;;;10.73;9.63;;;9.30;99.90;;;;;;5086367;28;20282;-76
2024/03/21 04:08:22;;;;;;;10.25;9.25;;;9.30;99.90;;;;;;5093244;28;20225;-78
2024/03/21 04:10:48;;;;;;;10.68;9.57;;;9.30;99.90;;;;;;5087034;28;20245;-79
2024/03/21 04:13:15;;;;;;;10.25;9.25;;;9.30;99.90;;;;;;5085456;28;20225;-83
2024/03/21 04:15:42;;;;;;;10.07;9.07;;;9.30;99.90;;;;;;5091174;28;20271;-76
2024/03/21 04:18:09;;;;;;;11.15;10.05;;;9.30;99.90;;;;;;5090101;28;20209;-75
2024/03/21 04:20:36;;;;;;;10.40;9.40;;;9.30;99.90;;;;;;5085797;28;20876;-84
2024/03/21 04:23:03;;;;;;;11.38;10.27;;;9.30;99.90;;;;;;5088758;28;20239;-80
2024/03/21 04:25:30;;;;;;;11.00;9.90;;;9.30;99.90;;;;;;5084410;28;20216;-77
2024/03/21 04:27:57;;;;;;;12.45;10.70;;;9.30;99.90;;;;;;5087990;28;20241;-77
2024/03/21 04:30:23;;;;;;;11.82;10.63;;;9.30;99.90;;;;;;5090321;28;20231;-81
2024/03/21 04:32:49;;;;;;;11.43;10.23;;;9.30;99.90;;;;;;5090062;28;20304;-78
2024/03/21 04:35:16;;;;;;;11.10;10.00;;;9.30;99.90;;;;;;5088441;28;20256;-78
2024/03/21 04:37:44;;;;;;;10.98;9.88;;;9.30;99.90;;;;;;5089194;28;20710;-80
2024/03/21 04:40:12;;;;;;;9.82;8.82;;;9.20;99.90;;;;;;5086263;28;20294;-77
2024/03/21 04:42:39;;;;;;;10.98;9.88;;;9.20;99.90;;;;;;5079994;28;20232;-80
2024/03/21 04:45:07;;;;;;;12.25;10.60;;;9.20;99.90;;;;;;5087309;28;20259;-80
2024/03/21 04:47:33;;;;;;;12.25;11.02;;;9.20;99.90;;;;;;5081578;28;20218;-77
2024/03/21 04:50:00;;;;;;;11.48;10.18;;;9.20;99.90;;;;;;5086512;28;20281;-77
2024/03/21 04:52:27;;;;;;;11.45;10.27;;;9.20;99.90;;;;;;5088878;28;20695;-82
2024/03/21 04:54:55;;;;;;;11.40;10.20;;;9.20;99.90;;;;;;5079587;28;20236;-82
2024/03/21 04:57:21;;;;;;;11.88;10.57;;;9.20;99.90;;;;;;5081658;28;20226;-78
2024/03/21 04:59:48;;;;;;;10.45;9.45;;;9.20;99.90;;;;;;5083229;28;20304;-78
2024/03/21 05:02:14;;;;;;;11.07;9.95;;;9.20;99.90;;;;;;5083300;28;20245;-76
2024/03/21 05:04:41;;;;;;;10.77;9.68;;;9.20;99.90;;;;;;5087009;28;20547;-82
2024/03/21 05:07:07;;;;;;;12.02;10.82;;;9.20;99.90;;;;;;5093984;28;20315;-78
2024/03/21 05:09:34;;;;;;;11.80;10.57;;;9.20;99.90;;;;;;5081571;28;20716;-84
2024/03/21 05:12:02;;;;;;;11.70;10.60;;;9.20;99.90;;;;;;5089431;28;20249;-77
2024/03/21 05:14:33;;;;;;;12.45;11.20;;;9.20;99.90;;;;;;5088749;28;20225;-82
2024/03/21 05:17:00;;;;;;;11.77;10.57;;;9.20;99.90;;;;;;5075945;28;20215;-79
2024/03/21 05:19:26;;;;;;;10.07;9.07;;;9.20;99.90;;;;;;5080358;28;20773;-75
2024/03/21 05:21:53;;;;;;;10.65;9.60;;;9.20;99.90;;;;;;5076824;28;20210;-77
2024/03/21 05:24:19;;;;;;;12.45;11.23;;;9.30;99.90;;;;;;5061764;28;20269;-82
2024/03/21 05:26:46;;;;;;;12.32;11.05;;;9.30;99.90;;;;;;5081086;28;20261;-77
2024/03/21 05:29:13;;;;;;;12.55;11.25;;;9.30;99.90;;;;;;5088642;28;20249;-75
2024/03/21 05:31:41;;;;;;;12.57;11.10;;;9.30;99.90;;;;;;5085414;28;20235;-75
2024/03/21 05:34:07;;;;;;;12.57;11.27;;;9.40;99.90;;;;;;5082750;28;20230;-78
2024/03/21 05:36:34;;;;;;;12.63;11.32;;;9.40;99.90;;;;;;5078715;28;20954;-80
2024/03/21 05:39:00;;;;;;;12.15;10.82;;;9.50;99.90;;;;;;5087264;28;20229;-82
2024/03/21 05:41:27;;;;;;;12.52;11.18;;;9.50;99.90;;;;;;5070895;28;20240;-77
2024/03/21 05:43:53;;;;;;;12.43;11.10;;;9.50;99.90;;;;;;5083491;28;20290;-77
2024/03/21 05:46:26;;;;;;;13.05;10.48;;;9.50;99.90;;;;;;5082424;28;20274;-77
2024/03/21 05:48:53;;;;;;;11.60;10.43;;;9.40;99.90;;;;;;5083617;28;20227;-79
2024/03/21 05:51:20;;;;;;;12.05;10.75;;;9.40;99.90;;;;;;5077991;28;20891;-82
2024/03/21 05:53:46;;;;;;;10.80;9.70;;;9.30;99.90;;;;;;5086517;28;20247;-79
2024/03/21 05:56:14;;;;;;;10.73;9.45;;;9.30;99.90;;;;;;5080279;28;20225;-80
2024/03/21 05:58:40;;;;;;;9.75;8.75;;;9.30;99.90;;;;;;5079514;28;20218;-79
2024/03/21 06:01:22;;;;;;;9.15;8.25;;;9.30;99.90;;;;;;5085561;28;20759;-77
2024/03/21 06:03:50;;;;;;;9.13;8.32;;;9.20;99.90;;;;;;5083144;28;20218;-79
2024/03/21 06:06:17;;;;;;;9.88;8.98;;;9.20;99.90;;;;;;5085190;28;20229;-78
2024/03/21 06:08:43;;;;;;;13.77;11.32;;;9.20;99.90;;;;;;5086589;28;20375;-79
2024/03/21 06:11:11;;;;;;;11.57;10.20;;;9.10;99.90;;;;;;5087519;28;20255;-85
2024/03/21 06:13:37;;;;;;;8.95;8.13;;;9.10;99.90;;;;;;5088375;28;20805;-76
2024/03/21 06:16:04;;;;;;;8.52;7.63;;;9.00;99.90;;;;;;5089266;28;20247;-81
2024/03/21 06:18:30;;;;;;;8.07;7.38;;;9.10;99.90;;;;;;5081638;28;20267;-81
2024/03/21 06:20:58;;;;;;;9.27;8.30;;;9.10;99.90;;;;;;5090060;28;20224;-78
2024/03/21 06:23:24;;;;;;;8.90;8.10;;;9.20;99.90;;;;;;5084441;28;20620;-78
2024/03/21 06:25:51;;;;;;;9.00;8.18;;;9.30;99.90;;;;;;5091686;28;20746;-82
2024/03/21 06:28:17;;;;;;;7.90;7.20;;;9.40;99.90;;;;;;5079643;28;20306;-81
2024/03/21 06:30:44;;;;;;;8.57;7.78;;;9.50;99.90;;;;;;5088135;28;20241;-81
2024/03/21 06:33:10;;;;;;;8.85;7.70;;;9.60;99.90;;;;;;5084904;28;20229;-76
2024/03/21 06:35:39;;;;;;;8.75;7.93;;;9.60;99.90;;;;;;5081183;28;20226;-81
2024/03/21 06:38:07;;;;;;;8.90;7.82;;;9.70;99.90;;;;;;5086123;28;20220;-79
2024/03/21 06:40:34;;;;;;;9.65;8.63;;;9.70;99.90;;;;;;5085628;28;20308;-80
2024/03/21 06:43:00;;;;;;;9.13;8.15;;;9.80;99.90;;;;;;5087239;28;20256;-77
2024/03/21 06:45:27;;;;;;;8.80;8.00;;;9.90;99.90;;;;;;5079832;28;20305;-78
2024/03/21 06:47:53;;;;;;;8.60;7.75;;;9.90;99.90;;;;;;5091947;28;20225;-80
2024/03/21 06:50:20;;;;;;;8.07;7.30;;;10.00;99.90;;;;;;5083519;28;20308;-83
2024/03/21 06:52:48;;;;;;;7.45;6.75;;;10.20;99.90;;;;;;5084088;28;20218;-81
2024/03/21 06:55:17;;;;;;;7.68;6.97;;;10.30;99.90;;;;;;5085727;28;20790;-80
2024/03/21 06:57:47;;;;;;;8.10;7.30;;;10.40;99.90;;;;;;5084835;28;20240;-76
2024/03/21 07:00:14;;;;;;;8.10;7.30;;;10.60;99.90;;;;;;5080682;28;20228;-81
2024/03/21 07:02:40;;;;;;;8.75;7.95;;;10.60;99.90;;;;;;5083108;28;20753;-78
2024/03/21 07:05:08;;;;;;;8.23;7.47;;;10.70;99.90;;;;;;5079798;28;20210;-81
2024/03/21 07:07:34;;;;;;;8.90;8.07;;;10.60;99.90;;;;;;5084376;28;20217;-81
2024/03/21 07:10:01;;;;;;;9.80;8.75;;;10.40;99.90;;;;;;5085491;28;20238;-83
2024/03/21 07:12:30;;;;;;;10.15;9.15;;;10.20;99.90;;;;;;5087122;28;20217;-78
2024/03/21 07:14:57;;;;;;;9.82;8.82;;;10.10;99.90;;;;;;5082429;28;20236;-77
2024/03/21 07:17:22;;;;;;;10.43;9.35;;;10.10;99.90;;;;;;5077697;28;20209;-82
2024/03/21 07:19:50;;;;;;;9.70;8.80;;;10.10;99.90;;;;;;5085095;28;20220;-84
2024/03/21 07:22:16;;;;;;;10.32;9.32;;;10.10;99.90;;;;;;5079342;28;20240;-82
2024/03/21 07:24:42;;;;;;;11.02;9.18;;;10.10;99.90;;;;;;5089476;28;20302;-82
2024/03/21 07:27:08;;;;;;;10.15;9.15;;;10.00;99.90;;;;;;5083782;28;20302;-84
2024/03/21 07:29:37;;;;;;;10.07;9.07;;;10.00;99.90;;;;;;5082411;28;20240;-82
2024/03/21 07:32:04;;;;;;;10.05;9.05;;;10.00;99.90;;;;;;5082639;28;20213;-83
2024/03/21 07:34:32;;;;;;;9.63;8.73;;;10.00;99.90;;;;;;5082255;28;20224;-78
2024/03/21 07:36:58;;;;;;;9.15;8.32;;;10.10;99.90;;;;;;5077762;28;20220;-78
2024/03/21 07:39:25;;;;;;;10.20;8.80;;;10.30;99.90;;;;;;5075647;28;20214;-79
2024/03/21 07:41:51;;;;;;;9.30;8.32;;;10.30;99.90;;;;;;5076743;28;20246;-79
2024/03/21 07:44:18;;;;;;;9.13;8.07;;;10.50;99.90;;;;;;5082021;28;20216;-81
2024/03/21 07:46:45;;;;;;;9.18;8.25;;;10.60;99.90;;;;;;5083728;28;20258;-78
2024/03/21 07:49:12;;;;;;;8.02;7.28;;;10.80;99.90;;;;;;5084710;28;20213;-84
2024/03/21 07:51:38;;;;;;;10.98;8.77;;;11.00;99.90;;;;;;5081335;28;20322;-79
2024/03/21 07:54:07;;;;;;;8.20;7.38;;;11.20;99.90;;;;;;5088052;28;20262;-79
2024/03/21 07:56:33;;;;;;;9.13;8.23;;;11.30;99.90;;;;;;5081031;28;20225;-76
2024/03/21 07:59:00;;;;;;;9.70;8.80;;;11.40;99.90;;;;;;5087165;28;20251;-75
2024/03/21 08:01:27;;;;;;;8.63;7.82;;;11.40;99.90;;;;;;5092047;28;20221;-78
2024/03/21 08:03:55;;;;;;;8.57;7.78;;;11.50;99.90;;;;;;5075705;28;20206;-78
2024/03/21 08:06:21;;;;;;;8.43;7.70;;;11.60;99.90;;;;;;5077373;28;20880;-75
2024/03/21 08:08:48;;;;;;;9.25;8.38;;;11.70;99.90;;;;;;5083587;28;20216;-76
2024/03/21 08:11:14;;;;;;;9.48;8.50;;;11.80;99.90;;;;;;5087396;28;20268;-77
2024/03/21 08:13:41;;;;;;;8.10;7.40;;;11.90;99.90;;;;;;5088537;28;20205;-83
2024/03/21 08:16:07;;;;;;;8.93;8.02;;;12.00;99.90;;;;;;5090868;28;20213;-76
2024/03/21 08:18:34;;;;;;;8.40;7.60;;;12.10;99.90;;;;;;5084262;28;20320;-76
2024/03/21 08:21:02;;;;;;;8.85;8.02;;;12.20;99.90;;;;;;5084213;28;20222;-76
2024/03/21 08:23:30;;;;;;;8.25;7.53;;;12.40;99.90;;;;;;5085403;28;20599;-77
2024/03/21 08:26:01;;;;;;;8.68;7.75;;;12.60;99.90;;;;;;5088582;28;20300;-76
2024/03/21 08:28:28;;;;;;;9.15;8.32;;;12.70;99.90;;;;;;5076925;28;20210;-78
2024/03/21 08:30:54;;;;;;;9.70;8.80;;;12.80;99.90;;;;;;5070602;28;20349;-82
2024/03/21 08:33:21;;;;;;;10.60;9.50;;;12.70;99.90;;;;;;5092051;28;20723;-77
2024/03/21 08:35:47;;;;;;;10.23;9.23;;;12.60;99.90;;;;;;5067154;28;20326;-78
2024/03/21 08:38:16;;;;;;;10.38;9.27;;;12.50;99.90;;;;;;5060434;28;20692;-77
2024/03/21 08:40:49;;;;;;;10.00;8.65;;;12.40;99.90;;;;;;5071582;28;20653;-79
2024/03/21 08:43:16;;;;;;;9.45;8.43;;;12.40;99.90;;;;;;5068732;28;20221;-77
2024/03/21 08:45:44;;;;;;;9.00;8.10;;;12.60;99.90;;;;;;5061858;28;20308;-78
2024/03/21 08:48:11;;;;;;;8.23;7.53;;;13.00;99.90;;;;;;5078595;28;20210;-78
2024/03/21 08:50:38;;;;;;;9.38;8.48;;;13.30;99.90;;;;;;5083789;28;20292;-80
2024/03/21 08:53:05;;;;;;;9.25;8.30;;;13.60;99.90;;;;;;5085104;28;20217;-84
2024/03/21 08:55:33;;;;;;;9.02;8.23;;;13.80;99.90;;;;;;5080471;28;20217;-83
2024/03/21 08:58:00;;;;;;;8.95;8.05;;;14.10;99.90;;;;;;5086392;28;20224;-77
2024/03/21 09:00:26;;;;;;;8.38;7.60;;;14.40;99.90;;;;;;5081548;28;20283;-77
2024/03/21 09:02:53;;;;;;;10.00;8.57;;;14.50;99.90;;;;;;5083223;28;20257;-77
2024/03/21 09:05:19;;;;;;;8.55;7.78;;;14.50;99.90;;;;;;5079998;28;20253;-77
2024/03/21 09:07:46;;;;;;;11.55;9.15;;;14.60;99.90;;;;;;5084837;28;20245;-78
2024/03/21 09:10:12;;;;;;;9.48;8.52;;;14.50;99.90;;;;;;5081649;28;20335;-77
2024/03/21 09:12:42;;;;;;;9.95;8.88;;;14.50;99.90;;;;;;5082706;28;20769;-77
2024/03/21 09:15:09;;;;;;;9.35;8.45;;;14.70;99.90;;;;;;5072480;28;20237;-77
2024/03/21 09:17:36;;;;;;;10.52;8.45;;;14.80;99.90;;;;;;5078289;28;20602;-80
2024/03/21 09:20:04;;;;;;;8.88;8.05;;;14.70;99.90;;;;;;5076938;28;20216;-78
2024/03/21 09:22:32;;;;;;;10.25;8.93;;;14.60;99.90;;;;;;5077929;28;20889;-80
2024/03/21 09:24:58;;;;;;;9.13;8.27;;;14.60;99.90;;;;;;5074134;28;20291;-80
2024/03/21 09:27:25;;;;;;;9.38;8.38;;;15.00;99.90;;;;;;5081461;28;20218;-80
2024/03/21 09:29:52;;;;;;;10.55;9.05;;;15.70;99.90;;;;;;5079323;28;20283;-78
2024/03/21 09:32:20;;;;;;;9.43;8.52;;;16.20;99.90;;;;;;5078422;28;20222;-82
2024/03/21 09:34:47;;;;;;;10.57;8.40;;;16.80;99.90;;;;;;5077576;28;20237;-81
2024/03/21 09:37:14;;;;;;;10.68;8.98;;;17.00;99.90;;;;;;5078658;28;20213;-79
2024/03/21 09:39:40;;;;;;;9.43;8.63;;;17.00;99.90;;;;;;5075720;28;20222;-79
2024/03/21 09:42:09;;;;;;;9.80;8.80;;;16.60;99.90;;;;;;5080213;28;20239;-79
2024/03/21 09:44:35;;;;;;;12.48;8.35;;;16.20;99.90;;;;;;5080846;28;20308;-81
2024/03/21 09:47:16;;;;;;;9.10;8.18;;;15.80;99.90;;;;;;5078813;28;21057;-80
2024/03/21 09:49:42;;;;;;;8.10;7.30;;;15.60;99.90;;;;;;5060268;28;20221;-78
2024/03/21 09:52:10;;;;;;;9.25;7.97;;;15.60;99.90;;;;;;5056226;28;20241;-80
2024/03/21 09:54:36;;;;;;;8.35;7.50;;;15.70;99.90;;;;;;5062988;28;20760;-78
2024/03/21 09:57:06;;;;;;;8.52;7.70;;;15.70;99.90;;;;;;5077312;28;20236;-80
2024/03/21 09:59:32;;;;;;;8.88;7.97;;;15.60;99.90;;;;;;5078428;28;20228;-80
2024/03/21 10:01:59;;;;;;;9.02;7.60;;;15.60;99.90;;;;;;5073811;28;20221;-80
2024/03/21 10:04:26;;;;;;;7.70;7.00;;;15.50;99.90;;;;;;5075830;28;20309;-76
2024/03/21 10:06:53;;;;;;;8.05;7.20;;;15.30;99.90;;;;;;5079510;28;20797;-81
2024/03/21 10:09:19;;;;;;;8.00;7.20;;;15.20;99.90;;;;;;5076467;28;20225;-79
2024/03/21 10:11:48;;;;;;;8.02;7.22;;;15.20;99.90;;;;;;5076845;28;20218;-77
2024/03/21 10:14:14;;;;;;;9.43;7.18;;;15.20;99.90;;;;;;5079360;28;20946;-77
2024/03/21 10:16:41;;;;;;;7.68;6.97;;;15.10;99.90;;;;;;5080101;28;20223;-78
2024/03/21 10:19:08;;;;;;;7.68;6.88;;;14.90;99.90;;;;;;5080510;28;20260;-76
2024/03/21 10:21:36;;;;;;;10.57;6.93;;;14.80;99.90;;;;;;5076161;28;20217;-80
2024/03/21 10:24:04;;;;;;;6.65;6.05;;;14.70;99.90;;;;;;5081788;28;20211;-79
2024/03/21 10:26:31;;;;;;;7.25;6.50;;;14.60;99.90;;;;;;5083562;28;20217;-79
2024/03/21 10:28:57;;;;;;;7.68;6.70;;;14.50;99.90;;;;;;5084799;28;20244;-79
2024/03/21 10:31:25;;;;;;;6.97;6.28;;;14.50;99.90;;;;;;5081439;28;20303;-76
2024/03/21 10:33:54;;;;;;;7.72;7.03;;;14.50;99.90;;;;;;5086547;28;20875;-77
2024/03/21 10:36:21;;;;;;;7.38;6.68;;;14.60;99.90;;;;;;5082495;28;20655;-79
2024/03/21 10:38:48;;;;;;;8.82;7.93;;;15.30;99.90;;;;;;5080676;28;20305;-80
2024/03/21 10:41:22;;;;;;;8.93;7.97;;;15.70;99.90;;;;;;5075281;28;20946;-80
2024/03/21 10:43:54;;;;;;;9.40;7.78;;;16.10;99.90;;;;;;5070325;28;20242;-79
2024/03/21 10:46:23;;;;;;;9.20;8.30;;;16.20;99.90;;;;;;5068839;28;20260;-80
2024/03/21 10:48:49;;;;;;;9.32;8.38;;;16.10;99.90;;;;;;5074369;28;20228;-79
2024/03/21 10:51:20;;;;;;;7.30;6.60;;;16.00;99.90;;;;;;5073539;28;20301;-78
2024/03/21 10:53:55;;;;;;;10.10;8.68;;;16.30;99.90;;;;;;5071550;28;20290;-78
2024/03/21 10:56:26;;;;;;;8.93;8.13;;;16.60;99.90;;;;;;5072302;28;20225;-79
2024/03/21 10:58:56;;;;;;;8.93;8.13;;;16.80;99.90;;;;;;5073486;28;20984;-80
2024/03/21 11:01:34;;;;;;;8.77;7.47;;;16.80;99.90;;;;;;5073537;28;20221;-77
2024/03/21 11:04:03;;;;;;;8.18;7.47;;;17.00;99.90;;;;;;5075224;28;20685;-78
2024/03/21 11:06:32;;;;;;;7.95;7.25;;;17.10;99.90;;;;;;5070154;28;20221;-80
2024/03/21 11:09:00;;;;;;;9.55;8.00;;;17.00;99.90;;;;;;5063947;28;20729;-80
2024/03/21 11:11:29;;;;;;;8.77;7.88;;;16.90;99.90;;;;;;5054799;28;20225;-77
2024/03/21 11:13:59;;;;;;;7.75;6.97;;;16.90;99.90;;;;;;5055968;28;20429;-77
2024/03/21 11:16:26;;;;;;;8.45;7.60;;;16.80;99.90;;;;;;5054367;28;20225;-76
2024/03/21 11:18:52;;;;;;;8.90;7.97;;;16.60;99.90;;;;;;5056767;28;20316;-80
2024/03/21 11:21:19;;;;;;;7.15;6.43;;;16.40;99.90;;;;;;5064404;28;20301;-77
2024/03/21 11:23:46;;;;;;;7.47;6.78;;;16.40;99.90;;;;;;5061682;28;20336;-79
2024/03/21 11:26:16;;;;;;;7.93;7.05;;;16.30;99.90;;;;;;5080014;28;20295;-78
2024/03/21 11:28:43;;;;;;;9.43;6.90;;;16.30;99.90;;;;;;5084213;28;20306;-77
2024/03/21 11:31:19;;;;;;;8.55;7.35;;;16.50;99.90;;;;;;5083551;28;20227;-77
2024/03/21 11:33:45;;;;;;;7.93;7.22;;;16.50;99.90;;;;;;5081965;28;20249;-80
2024/03/21 11:36:12;;;;;;;8.90;7.97;;;16.40;99.90;;;;;;5080620;28;20296;-78
2024/03/21 11:38:38;;;;;;;7.85;7.05;;;16.40;99.90;;;;;;5077340;28;20249;-80
2024/03/21 11:41:06;;;;;;;8.70;7.80;;;16.50;99.90;;;;;;5078719;28;20226;-78
2024/03/21 11:43:36;;;;;;;9.07;8.18;;;16.40;99.90;;;;;;5073426;28;20325;-79
2024/03/21 11:46:03;;;;;;;10.15;8.68;;;16.50;99.90;;;;;;5070797;28;20921;-78
2024/03/21 11:48:29;;;;;;;11.27;10.07;;;16.40;99.90;;;;;;5077228;28;20225;-77
2024/03/21 11:50:56;;;;;;;10.43;9.32;;;16.30;99.90;;;;;;5080046;28;20406;-80
2024/03/21 11:53:22;;;;;;;10.18;9.15;;;16.20;99.90;;;;;;5074251;28;20272;-77
2024/03/21 11:55:49;;;;;;;11.05;8.82;;;16.20;99.90;;;;;;5079717;28;20307;-80
2024/03/21 11:58:14;;;;;;;9.38;8.55;;;16.20;99.90;;;;;;5079979;28;20213;-79
2024/03/21 12:00:43;;;;;;;8.63;7.72;;;16.20;99.90;;;;;;5076211;28;20209;-78
2024/03/21 12:03:11;;;;;;;9.30;8.10;;;16.50;99.90;;;;;;5076648;28;20764;-78
2024/03/21 12:05:38;;;;;;;9.80;8.80;;;16.90;99.90;;;;;;5076909;28;20209;-80
2024/03/21 12:08:04;;;;;;;9.15;7.82;;;17.00;99.90;;;;;;5080898;28;20558;-78
2024/03/21 12:10:31;;;;;;;10.85;9.20;;;17.20;99.90;;;;;;5078460;28;20798;-79
2024/03/21 12:12:57;;;;;;;9.80;8.80;;;17.40;99.90;;;;;;5081789;28;20213;-80
2024/03/21 12:15:24;;;;;;;9.55;8.55;;;17.60;99.90;;;;;;5087779;28;20754;-80
2024/03/21 12:17:52;;;;;;;9.02;8.13;;;17.80;99.90;;;;;;5087371;28;20799;-77
2024/03/21 12:20:20;;;;;;;8.88;7.97;;;18.10;99.90;;;;;;5087488;28;20644;-79
2024/03/21 12:22:46;;;;;;;10.40;9.32;;;18.20;99.90;;;;;;5079619;28;20258;-82
2024/03/21 12:25:14;;;;;;;9.00;8.10;;;18.00;99.90;;;;;;5081668;28;20209;-80
2024/03/21 12:27:39;;;;;;;8.50;7.70;;;17.80;99.90;;;;;;5085969;28;20219;-80
2024/03/21 12:30:08;;;;;;;9.32;7.43;;;17.70;99.90;;;;;;5082756;28;20247;-78
2024/03/21 12:32:34;;;;;;;12.65;8.38;;;17.70;99.90;;;;;;5087526;28;20229;-85
2024/03/21 12:35:02;;;;;;;9.18;8.27;;;17.80;99.90;;;;;;5085926;27;20215;-78
2024/03/21 12:37:28;;;;;;;9.07;8.18;;;17.90;99.90;;;;;;5078094;28;20218;-79
2024/03/21 12:39:55;;;;;;;7.88;7.05;;;17.70;99.90;;;;;;5083703;28;20629;-83
2024/03/21 12:42:21;;;;;;;7.70;7.00;;;17.50;99.90;;;;;;5076024;28;20229;-80
2024/03/21 12:44:49;;;;;;;8.82;7.38;;;17.40;99.90;;;;;;5082850;28;20410;-78
2024/03/21 12:47:17;;;;;;;9.38;7.57;;;17.30;99.90;;;;;;5073171;28;20226;-78